»·PEaware :: WAT605 KOAK-KSNA

WAT605 :: KOAK-KSNA

FLIGHT INFORMATION

Flight Status: Arrived
Operator:
Walker Air Transport
More flights by this operator :: More flights under this callsign
Pilot: Kaleb W. (11686)
Aircraft: BOEING 737-800
(B738)
More flights by this aircraft type
Origin: KOAK Metro Oakland Intl
United States
Destination: KSNA John Wayne-Orange Co
United States
More flights between these airports :: More routes between these airports
Route: CNDEL5 YYUNG TILLT TILLT2
File this flight plan on PilotEdge
Remarks: RMK / SIMBRIEF
Altitude:
(Current/Filed)
33,000ft
Speed:
(Current/Filed)
459kts
Departed: 05-Feb-22 06:20 PM
Arrived: 05-Feb-22 07:28 PM
Distance/Time
Traveled:
322nm/1:08
Distance/Time
To Go:
Arrived

Flight Plot

Page will automatically refresh every two minutes.

Flight plan parsing failed; only flown route is shown


Map Options




Map Legend


Flown Route
Filed Route
Departure Airport
Arrival Airport
Navaid (VOR, NDB)
Fix

Horizontal Profiles

Position Reports

Time Latitude Longitude Heading Altitude Ground
Speed
05-Feb-22 17:56 37.710898 -122.215465 309 13ft 0kts
05-Feb-22 17:57 37.710898 -122.215465 309 13ft 0kts
05-Feb-22 17:58 37.710898 -122.215465 309 13ft 0kts
05-Feb-22 17:59 37.710898 -122.215465 309 13ft 0kts
05-Feb-22 18:00 37.710898 -122.215465 309 13ft 0kts
05-Feb-22 18:01 37.710898 -122.215465 309 13ft 0kts
05-Feb-22 18:02 37.710898 -122.215465 309 13ft 0kts
05-Feb-22 18:03 37.710898 -122.215465 309 13ft 0kts
05-Feb-22 18:04 37.710898 -122.215465 309 13ft 0kts
05-Feb-22 18:05 37.710898 -122.215465 309 13ft 0kts
05-Feb-22 18:06 37.710898 -122.215465 309 13ft 0kts
05-Feb-22 18:07 37.710898 -122.215465 309 13ft 0kts
05-Feb-22 18:08 37.710672 -122.215122 309 13ft 2kts
05-Feb-22 18:09 37.710427 -122.214526 267 13ft 2kts
05-Feb-22 18:10 37.710660 -122.214015 215 13ft 0kts
05-Feb-22 18:11 37.710661 -122.214014 215 13ft 0kts
05-Feb-22 18:12 37.710649 -122.214025 215 13ft 0kts
05-Feb-22 18:13 37.708902 -122.215747 222 13ft 15kts
05-Feb-22 18:14 37.705462 -122.216345 130 13ft 13kts
05-Feb-22 18:15 37.702792 -122.213616 168 12ft 0kts
05-Feb-22 18:16 37.702792 -122.213616 168 12ft 0kts
05-Feb-22 18:17 37.702792 -122.213616 168 12ft 0kts
05-Feb-22 18:18 37.702207 -122.215292 309 13ft 12kts
05-Feb-22 18:19 37.725119 -122.249485 310 1577ft 181kts
05-Feb-22 18:20 37.765371 -122.310083 311 2066ft 257kts
05-Feb-22 18:21 37.793777 -122.389598 252 6178ft 275kts
05-Feb-22 18:22 37.728038 -122.436388 188 9751ft 294kts
05-Feb-22 18:23 37.636255 -122.451671 186 11429ft 365kts
05-Feb-22 18:24 37.535438 -122.467453 186 14460ft 381kts
05-Feb-22 18:25 37.428660 -122.485801 188 17230ft 396kts
05-Feb-22 18:26 37.317593 -122.506568 188 19363ft 417kts
05-Feb-22 18:27 37.204724 -122.527506 188 19292ft 412kts
05-Feb-22 18:28 37.090525 -122.548604 188 21502ft 422kts
05-Feb-22 18:29 36.973194 -122.536073 156 23535ft 433kts
05-Feb-22 18:30 36.867241 -122.461851 149 25345ft 444kts
05-Feb-22 18:31 36.759386 -122.382652 149 26968ft 456kts
05-Feb-22 18:32 36.648829 -122.301907 149 28421ft 468kts
05-Feb-22 18:33 36.536121 -122.219895 149 30080ft 470kts
05-Feb-22 18:34 36.423971 -122.138526 150 31891ft 466kts
05-Feb-22 18:35 36.312709 -122.058068 150 33303ft 465kts
05-Feb-22 18:36 36.199677 -121.976587 150 33273ft 475kts
05-Feb-22 18:37 36.085837 -121.894818 150 33275ft 473kts
05-Feb-22 18:38 35.980682 -121.799451 130 33276ft 475kts
05-Feb-22 18:39 35.898747 -121.671672 127 33275ft 474kts
05-Feb-22 18:40 35.818101 -121.543861 127 33261ft 474kts
05-Feb-22 18:41 35.737139 -121.415894 127 33246ft 475kts
05-Feb-22 18:42 35.656121 -121.288229 128 33248ft 474kts
05-Feb-22 18:43 35.574978 -121.160831 128 33247ft 476kts
05-Feb-22 18:44 35.486042 -121.039718 137 33240ft 481kts
05-Feb-22 18:45 35.387007 -120.929771 138 33212ft 482kts
05-Feb-22 18:46 35.286860 -120.820976 138 33201ft 482kts
05-Feb-22 18:47 35.186855 -120.713198 139 33201ft 480kts
05-Feb-22 18:48 35.086224 -120.605289 139 33203ft 482kts
05-Feb-22 18:49 34.979061 -120.507988 145 33210ft 481kts
05-Feb-22 18:50 34.868528 -120.418469 144 33210ft 473kts
05-Feb-22 18:51 34.758868 -120.329947 145 33209ft 474kts
05-Feb-22 18:52 34.649251 -120.241847 145 32714ft 469kts
05-Feb-22 18:53 34.540827 -120.155190 145 31714ft 468kts
05-Feb-22 18:54 34.431857 -120.068318 145 30712ft 471kts
05-Feb-22 18:55 34.322631 -119.981518 144 29713ft 472kts
05-Feb-22 18:56 34.213758 -119.895296 144 28712ft 465kts
05-Feb-22 18:57 34.107064 -119.809662 139 27707ft 456kts
05-Feb-22 18:58 34.029498 -119.694585 118 26710ft 440kts
05-Feb-22 18:59 33.966709 -119.569478 117 25708ft 432kts
05-Feb-22 19:01 33.905258 -119.447418 117 24710ft 422kts
05-Feb-22 19:02 33.845965 -119.327316 117 23710ft 419kts
05-Feb-22 19:03 33.787559 -119.208926 117 22701ft 403kts
05-Feb-22 19:04 33.731168 -119.095091 117 20751ft 377kts
05-Feb-22 19:05 33.677554 -118.987123 117 18574ft 371kts
05-Feb-22 19:06 33.625542 -118.882615 117 16278ft 368kts
05-Feb-22 19:07 33.577010 -118.779993 108 14225ft 339kts
05-Feb-22 19:08 33.554940 -118.671434 98 11906ft 335kts
05-Feb-22 19:09 33.537946 -118.565727 101 9609ft 318kts
05-Feb-22 19:10 33.523285 -118.475089 100 9068ft 253kts
05-Feb-22 19:11 33.517394 -118.389073 87 7413ft 276kts
05-Feb-22 19:12 33.526445 -118.302352 64 6663ft 254kts
05-Feb-22 19:13 33.553578 -118.221328 65 5198ft 261kts
05-Feb-22 19:14 33.584808 -118.146985 52 5045ft 233kts
05-Feb-22 19:15 33.620492 -118.082749 52 5045ft 230kts
05-Feb-22 19:16 33.656223 -118.018495 52 5044ft 233kts
05-Feb-22 19:17 33.692787 -117.953654 45 4048ft 236kts
05-Feb-22 19:18 33.747691 -117.914626 27 3017ft 231kts
05-Feb-22 19:19 33.799554 -117.877199 27 2976ft 212kts
05-Feb-22 19:20 33.850100 -117.840587 27 2981ft 211kts
05-Feb-22 19:21 33.885275 -117.791429 100 3007ft 203kts
05-Feb-22 19:22 33.843893 -117.763455 202 2962ft 190kts
05-Feb-22 19:22 33.807659 -117.785008 211 2822ft 168kts
05-Feb-22 19:24 33.765726 -117.811819 208 1900ft 133kts
05-Feb-22 19:25 33.732501 -117.832581 210 1122ft 129kts
05-Feb-22 19:26 33.699975 -117.853218 209 440ft 129kts
05-Feb-22 19:26 33.673328 -117.870327 208 56ft 99kts
05-Feb-22 19:27 33.668892 -117.871138 56 57ft 13kts
05-Feb-22 19:29 33.673618 -117.866902 31 52ft 24kts
05-Feb-22 19:30 33.676665 -117.864069 116 49ft 0kts
05-Feb-22 19:31 33.676665 -117.864069 116 49ft 0kts
05-Feb-22 19:31 33.676665 -117.864069 116 49ft 0kts

Navigation Log

Ident Type
Flight plan parsing failed, navigation log unavailable